createdAt,value
2023-05-25T00:01:37.379Z,96835.03
2023-05-25T00:04:04.650Z,96824.88
2023-05-25T00:06:32.957Z,96833.59
2023-05-25T00:08:59.851Z,96819.81
2023-05-25T00:11:27.416Z,96810.81
2023-05-25T00:13:54.343Z,96815.03
2023-05-25T00:16:21.992Z,96827.16
2023-05-25T00:18:49.034Z,96803.97
2023-05-25T00:21:16.377Z,96784.16
2023-05-25T00:23:43.522Z,96810.91
2023-05-25T00:26:10.818Z,96797.41
2023-05-25T00:28:37.706Z,96774.03
2023-05-25T00:31:04.667Z,96786.75
2023-05-25T00:33:31.765Z,96784.19
2023-05-25T00:36:00.447Z,96790.06
2023-05-25T00:38:27.387Z,96766.59
2023-05-25T00:40:57.483Z,96800.78
2023-05-25T00:43:24.414Z,96788.72
2023-05-25T00:45:52.026Z,96790.09
2023-05-25T00:48:19.355Z,96800.09
2023-05-25T00:50:46.828Z,96808.47
2023-05-25T00:53:14.351Z,96776.44
2023-05-25T00:56:14.482Z,96797.03
2023-05-25T00:58:43.950Z,96771.09
2023-05-25T01:01:13.853Z,96809.81
2023-05-25T01:03:45.956Z,96806.41
2023-05-25T01:06:16.182Z,96790.59
2023-05-25T01:08:50.111Z,96785.66
2023-05-25T01:11:20.040Z,96754.69
2023-05-25T01:13:48.863Z,96799.91
2023-05-25T01:16:17.115Z,96765.63
2023-05-25T01:18:44.020Z,96777.78
2023-05-25T01:21:22.342Z,96795.16
2023-05-25T01:24:22.765Z,96816.69
2023-05-25T01:26:58.468Z,96812.19
2023-05-25T01:29:28.393Z,96807.13
2023-05-25T01:31:58.286Z,96782.19
2023-05-25T01:34:25.409Z,96779.25
2023-05-25T01:36:52.503Z,96781.41
2023-05-25T01:39:22.695Z,96802.84
2023-05-25T01:41:49.791Z,96810.31
2023-05-25T01:44:17.365Z,96760.81
2023-05-25T01:46:44.368Z,96780.88
2023-05-25T01:49:14.397Z,96807.41
2023-05-25T01:51:56.912Z,96767.63
2023-05-25T01:54:33.266Z,96809.38
2023-05-25T01:57:02.168Z,96792.00
2023-05-25T01:59:31.529Z,96784.25
2023-05-25T02:02:01.074Z,96773.44
2023-05-25T02:04:28.923Z,96757.88
2023-05-25T02:06:55.900Z,96800.03
2023-05-25T02:09:22.939Z,96792.91
2023-05-25T02:11:51.363Z,96812.03
2023-05-25T02:14:18.399Z,96801.31
2023-05-25T02:16:46.292Z,96814.47
2023-05-25T02:19:15.264Z,96815.47
2023-05-25T02:21:42.645Z,96821.56
2023-05-25T02:24:10.505Z,96808.19
2023-05-25T02:26:38.842Z,96797.09
2023-05-25T02:29:06.630Z,96806.06
2023-05-25T02:31:33.725Z,96795.53
2023-05-25T02:34:01.532Z,96773.09
2023-05-25T02:36:28.734Z,96790.88
2023-05-25T02:38:55.691Z,96789.22
2023-05-25T02:41:24.553Z,96754.56
2023-05-25T02:43:51.622Z,96800.69
2023-05-25T02:46:19.350Z,96803.69
2023-05-25T02:48:47.540Z,96768.00
2023-05-25T02:51:14.732Z,96773.16
2023-05-25T02:53:41.991Z,96755.19
2023-05-25T02:56:10.560Z,96779.41
2023-05-25T02:58:38.915Z,96780.09
2023-05-25T03:01:19.113Z,96785.53
2023-05-25T03:03:53.102Z,96818.63
2023-05-25T03:06:23.233Z,96811.38
2023-05-25T03:08:54.496Z,96810.41
2023-05-25T03:11:21.463Z,96788.81
2023-05-25T03:13:49.336Z,96801.00
2023-05-25T03:16:17.442Z,96810.06
2023-05-25T03:18:44.374Z,96798.38
2023-05-25T03:21:11.691Z,96819.09
2023-05-25T03:23:38.559Z,96789.38
2023-05-25T03:26:08.288Z,96812.00
2023-05-25T03:28:35.332Z,96803.84
2023-05-25T03:31:02.225Z,96841.81
2023-05-25T03:33:29.139Z,96828.56
2023-05-25T03:35:56.110Z,96828.31
2023-05-25T03:38:23.608Z,96840.91
2023-05-25T03:40:50.483Z,96780.75
2023-05-25T03:43:17.774Z,96817.00
2023-05-25T03:45:47.573Z,96807.88
2023-05-25T03:48:14.757Z,96850.06
2023-05-25T03:50:42.076Z,96846.03
2023-05-25T03:53:09.000Z,96829.13
2023-05-25T03:55:35.913Z,96822.81
2023-05-25T03:58:02.864Z,96848.25
2023-05-25T04:00:29.938Z,96827.03
2023-05-25T04:02:57.291Z,96851.03
2023-05-25T04:05:24.278Z,96849.13
2023-05-25T04:07:52.392Z,96861.28
2023-05-25T04:10:19.286Z,96821.31
2023-05-25T04:12:46.211Z,96842.06
2023-05-25T04:15:14.597Z,96843.75
2023-05-25T04:17:56.482Z,96848.59
2023-05-25T04:20:23.604Z,96856.78
2023-05-25T04:22:50.715Z,96844.38
2023-05-25T04:25:17.596Z,96847.34
2023-05-25T04:27:46.914Z,96855.41
2023-05-25T04:30:16.787Z,96867.03
2023-05-25T04:32:55.106Z,96862.41
2023-05-25T04:35:31.915Z,96876.84
2023-05-25T04:38:03.083Z,96846.44
2023-05-25T04:40:33.392Z,96875.63
2023-05-25T04:43:00.615Z,96849.75
2023-05-25T04:45:29.438Z,96854.50
2023-05-25T04:47:58.429Z,96874.56
2023-05-25T04:50:28.080Z,96855.00
2023-05-25T04:52:55.218Z,96866.81
2023-05-25T04:55:22.184Z,96879.38
2023-05-25T04:57:49.607Z,96869.69
2023-05-25T05:00:17.109Z,96875.00
2023-05-25T05:02:46.199Z,96881.47
2023-05-25T05:05:13.732Z,96873.66
2023-05-25T05:07:41.266Z,96907.09
2023-05-25T05:10:08.869Z,96903.91
2023-05-25T05:12:38.134Z,96909.53
2023-05-25T05:15:05.906Z,96879.03
2023-05-25T05:17:33.081Z,96913.53
2023-05-25T05:20:00.368Z,96908.13
2023-05-25T05:22:27.459Z,96868.41
2023-05-25T05:24:54.633Z,96923.56
2023-05-25T05:27:26.447Z,96916.56
2023-05-25T05:29:58.604Z,96917.50
2023-05-25T05:32:25.849Z,96905.66
2023-05-25T05:34:52.958Z,96903.94
2023-05-25T05:37:33.645Z,96890.53
2023-05-25T05:40:00.530Z,96903.72
2023-05-25T05:42:27.660Z,96900.41
2023-05-25T05:44:54.526Z,96928.09
2023-05-25T05:47:21.642Z,96908.38
2023-05-25T05:49:48.619Z,96897.94
2023-05-25T05:52:16.857Z,96910.84
2023-05-25T05:54:43.881Z,96912.03
2023-05-25T05:57:13.477Z,96888.09
2023-05-25T05:59:40.491Z,96904.34
2023-05-25T06:02:07.944Z,96881.66
2023-05-25T06:04:34.932Z,96922.88
2023-05-25T06:07:02.694Z,96912.13
2023-05-25T06:09:29.657Z,96909.94
2023-05-25T06:11:59.578Z,96932.97
2023-05-25T06:14:28.468Z,96907.34
2023-05-25T06:16:58.412Z,96908.88
2023-05-25T06:19:25.609Z,96912.63
2023-05-25T06:21:52.746Z,96904.84
2023-05-25T06:24:21.441Z,96932.84
2023-05-25T06:26:48.368Z,96919.06
2023-05-25T06:29:17.041Z,96908.84
2023-05-25T06:31:44.598Z,96934.41
2023-05-25T06:34:11.627Z,96895.56
2023-05-25T06:36:38.525Z,96940.31
2023-05-25T06:39:05.539Z,96942.13
2023-05-25T06:41:32.643Z,96918.50
2023-05-25T06:43:59.554Z,96940.28
2023-05-25T06:46:40.187Z,96948.63
2023-05-25T06:49:08.814Z,96951.16
2023-05-25T06:51:35.738Z,96950.75
2023-05-25T06:54:02.608Z,96925.78
2023-05-25T06:56:29.714Z,96922.09
2023-05-25T06:58:56.588Z,96936.38
2023-05-25T07:01:23.560Z,96898.31
2023-05-25T07:03:50.462Z,96947.78
2023-05-25T07:06:17.742Z,96931.16
2023-05-25T07:08:44.851Z,96928.94
2023-05-25T07:11:14.343Z,96943.44
2023-05-25T07:13:41.427Z,96944.88
2023-05-25T07:16:08.375Z,96946.75
2023-05-25T07:18:35.304Z,96949.88
2023-05-25T07:21:02.206Z,96963.38
2023-05-25T07:23:29.116Z,96929.50
2023-05-25T07:25:56.002Z,96947.97
2023-05-25T07:28:22.954Z,96952.41
2023-05-25T07:30:49.805Z,96944.81
2023-05-25T07:33:16.833Z,96937.56
2023-05-25T07:35:44.335Z,96950.53
2023-05-25T07:38:11.341Z,96925.94
2023-05-25T07:40:38.275Z,96958.06
2023-05-25T07:43:07.536Z,96969.16
2023-05-25T07:45:35.326Z,96942.53
2023-05-25T07:48:02.357Z,96964.97
2023-05-25T07:50:31.547Z,96942.75
2023-05-25T07:53:00.077Z,96962.47
2023-05-25T07:55:27.467Z,96955.38
2023-05-25T07:57:54.358Z,96957.91
2023-05-25T08:00:21.818Z,96967.34
2023-05-25T08:02:49.578Z,96964.75
2023-05-25T08:05:17.103Z,96946.47
2023-05-25T08:07:45.357Z,96971.13
2023-05-25T08:10:12.481Z,96976.81
2023-05-25T08:12:48.743Z,96978.63
2023-05-25T08:15:17.237Z,96971.28
2023-05-25T08:17:44.537Z,96959.69
2023-05-25T08:20:12.294Z,96965.66
2023-05-25T08:22:39.261Z,96976.66
2023-05-25T08:25:07.151Z,96956.66
2023-05-25T08:27:36.077Z,96948.44
2023-05-25T08:30:06.091Z,96954.00
2023-05-25T08:32:33.278Z,96949.63
2023-05-25T08:35:03.752Z,96951.00
2023-05-25T08:37:32.727Z,96974.84
2023-05-25T08:40:02.500Z,96956.97
2023-05-25T08:42:29.694Z,96951.59
2023-05-25T08:44:57.155Z,96936.16
2023-05-25T08:47:24.485Z,96939.59
2023-05-25T08:49:52.958Z,96960.28
2023-05-25T08:52:24.419Z,96957.72
2023-05-25T08:54:54.508Z,96958.66
2023-05-25T08:57:32.273Z,96971.78
2023-05-25T09:00:12.017Z,96983.34
2023-05-25T09:02:45.434Z,96979.34
2023-05-25T09:05:13.923Z,96971.63
2023-05-25T09:07:43.413Z,96975.88
2023-05-25T09:10:14.792Z,96963.31
2023-05-25T09:12:43.003Z,96966.91
2023-05-25T09:15:11.523Z,96991.47
2023-05-25T09:17:39.573Z,96993.78
2023-05-25T09:20:07.913Z,96973.06
2023-05-25T09:22:36.105Z,96989.47
2023-05-25T09:25:08.688Z,96990.69
2023-05-25T09:27:39.605Z,96979.66
2023-05-25T09:30:06.955Z,96975.25
2023-05-25T09:32:34.002Z,96971.69
2023-05-25T09:35:14.683Z,96982.25
2023-05-25T09:37:42.514Z,96985.94
2023-05-25T09:40:14.775Z,96967.94
2023-05-25T09:42:42.537Z,96952.47
2023-05-25T09:45:09.715Z,96977.78
2023-05-25T09:47:37.649Z,96979.66
2023-05-25T09:50:05.988Z,96977.47
2023-05-25T09:52:32.932Z,96973.06
2023-05-25T09:54:59.921Z,96978.88
2023-05-25T09:57:27.516Z,96979.34
2023-05-25T09:59:54.374Z,96960.34
2023-05-25T10:02:21.363Z,96957.41
2023-05-25T10:04:48.830Z,96950.97
2023-05-25T10:07:16.387Z,96976.34
2023-05-25T10:09:46.657Z,96965.09
2023-05-25T10:12:19.565Z,96950.75
2023-05-25T10:14:46.819Z,96974.75
2023-05-25T10:17:18.606Z,96973.94
2023-05-25T10:19:55.330Z,96964.38
2023-05-25T10:22:43.534Z,96975.31
2023-05-25T10:25:17.373Z,96960.06
2023-05-25T10:27:52.213Z,96973.22
2023-05-25T10:30:19.934Z,96948.47
2023-05-25T10:32:47.919Z,96948.28
2023-05-25T10:35:15.045Z,96963.97
2023-05-25T10:37:42.711Z,96936.69
2023-05-25T10:40:10.451Z,96954.84
2023-05-25T10:42:39.014Z,96973.41
2023-05-25T10:45:08.506Z,96969.81
2023-05-25T10:47:44.403Z,96950.53
2023-05-25T10:50:26.449Z,96967.97
2023-05-25T10:53:13.099Z,96972.34
2023-05-25T10:55:44.346Z,96977.81
2023-05-25T10:58:12.783Z,96934.50
2023-05-25T11:00:40.735Z,96968.25
2023-05-25T11:03:08.000Z,96950.31
2023-05-25T11:05:39.966Z,96968.72
2023-05-25T11:08:12.691Z,96966.91
2023-05-25T11:10:48.866Z,96974.13
2023-05-25T11:14:00.456Z,96949.97
2023-05-25T11:16:27.404Z,96949.09
2023-05-25T11:18:58.111Z,96927.91
2023-05-25T11:21:27.925Z,96930.75
2023-05-25T11:24:11.044Z,96941.22
2023-05-25T11:26:37.972Z,96941.97
2023-05-25T11:29:16.009Z,96927.00
2023-05-25T11:31:43.854Z,96951.78
2023-05-25T11:34:12.521Z,96950.59
2023-05-25T11:36:39.891Z,96922.09
2023-05-25T11:39:17.094Z,96947.19
2023-05-25T11:41:56.284Z,96955.41
2023-05-25T11:44:31.460Z,96940.75
2023-05-25T11:47:02.192Z,96944.63
2023-05-25T11:49:29.485Z,96961.47
2023-05-25T11:51:59.952Z,96951.84
2023-05-25T11:54:28.811Z,96951.56
2023-05-25T11:57:00.189Z,96947.69
2023-05-25T11:59:29.748Z,96946.19
2023-05-25T12:02:01.292Z,96944.66
2023-05-25T12:04:29.498Z,96939.63
2023-05-25T12:07:07.310Z,96934.50
2023-05-25T12:09:35.329Z,96946.19
2023-05-25T12:12:04.574Z,96937.59
2023-05-25T12:14:35.128Z,96911.56
2023-05-25T12:17:04.591Z,96913.47
2023-05-25T12:19:32.225Z,96922.13
2023-05-25T12:21:59.230Z,96931.75
2023-05-25T12:24:26.460Z,96903.44
2023-05-25T12:26:57.769Z,96909.59
2023-05-25T12:29:28.095Z,96920.75
2023-05-25T12:32:05.790Z,96898.88
2023-05-25T12:34:34.004Z,96890.84
2023-05-25T12:37:01.784Z,96917.97
2023-05-25T12:39:31.732Z,96913.19
2023-05-25T12:42:00.702Z,96913.47
2023-05-25T12:44:32.705Z,96907.66
2023-05-25T12:47:20.416Z,96913.09
2023-05-25T12:49:51.571Z,96916.00
2023-05-25T12:52:44.505Z,96914.22
2023-05-25T12:55:27.750Z,96911.78
2023-05-25T12:58:02.920Z,96895.09
2023-05-25T13:00:36.552Z,96916.06
2023-05-25T13:03:04.569Z,96911.06
2023-05-25T13:05:34.044Z,96910.31
2023-05-25T13:08:02.296Z,96905.75
2023-05-25T13:10:30.989Z,96909.28
2023-05-25T13:12:58.735Z,96894.16
2023-05-25T13:15:27.043Z,96880.84
2023-05-25T13:17:56.602Z,96886.16
2023-05-25T13:20:25.262Z,96905.31
2023-05-25T13:22:53.489Z,96896.19
2023-05-25T13:25:22.641Z,96887.97
2023-05-25T13:27:51.286Z,96867.00
2023-05-25T13:30:20.943Z,96898.34
2023-05-25T13:32:50.412Z,96881.72
2023-05-25T13:35:23.001Z,96895.56
2023-05-25T13:37:51.493Z,96874.78
2023-05-25T13:40:19.277Z,96897.34
2023-05-25T13:42:46.179Z,96869.25
2023-05-25T13:45:13.933Z,96868.09
2023-05-25T13:47:43.799Z,96892.13
2023-05-25T13:50:11.541Z,96889.91
2023-05-25T13:52:38.480Z,96871.16
2023-05-25T13:55:05.779Z,96897.00
2023-05-25T13:57:32.658Z,96886.78
2023-05-25T13:59:59.582Z,96890.00
2023-05-25T14:02:26.760Z,96877.19
2023-05-25T14:04:53.780Z,96879.31
2023-05-25T14:07:20.663Z,96865.22
2023-05-25T14:09:47.556Z,96866.06
2023-05-25T14:12:14.587Z,96856.25
2023-05-25T14:14:41.477Z,96876.47
2023-05-25T14:17:08.343Z,96851.53
2023-05-25T14:19:35.549Z,96851.72
2023-05-25T14:24:32.467Z,96832.75
2023-05-25T14:26:59.389Z,96833.25
2023-05-25T14:29:26.326Z,96851.69
2023-05-25T14:31:53.495Z,96844.59
2023-05-25T14:34:20.504Z,96846.78
2023-05-25T14:36:47.389Z,96848.25
2023-05-25T14:39:17.165Z,96836.16
2023-05-25T14:41:44.551Z,96844.84
2023-05-25T14:44:11.558Z,96820.13
2023-05-25T14:46:38.572Z,96825.84
2023-05-25T14:49:05.506Z,96818.28
2023-05-25T14:51:32.551Z,96799.88
2023-05-25T14:54:01.520Z,96843.72
2023-05-25T14:56:28.611Z,96837.75
2023-05-25T14:58:55.524Z,96822.22
2023-05-25T15:01:25.096Z,96822.56
2023-05-25T15:03:52.695Z,96826.41
2023-05-25T15:06:19.879Z,96826.91
2023-05-25T15:08:47.055Z,96836.81
2023-05-25T15:11:13.983Z,96852.84
2023-05-25T15:13:41.168Z,96825.13
2023-05-25T15:16:12.007Z,96838.41
2023-05-25T15:18:38.968Z,96806.53
2023-05-25T15:21:06.504Z,96814.41
2023-05-25T15:23:33.476Z,96825.59
2023-05-25T15:26:04.783Z,96832.50
2023-05-25T15:28:31.921Z,96819.59
2023-05-25T15:31:01.596Z,96832.38
2023-05-25T15:33:43.641Z,96807.56
2023-05-25T15:36:16.794Z,96804.97
2023-05-25T15:38:44.692Z,96802.69
2023-05-25T15:41:15.192Z,96826.50
2023-05-25T15:43:42.463Z,96830.75
2023-05-25T15:46:09.355Z,96816.81
2023-05-25T15:48:36.275Z,96825.72
2023-05-25T15:51:03.255Z,96805.63
2023-05-25T15:53:30.624Z,96807.25
2023-05-25T15:55:57.590Z,96793.84
2023-05-25T15:58:24.506Z,96813.41
2023-05-25T16:00:51.369Z,96805.31
2023-05-25T16:03:18.409Z,96814.22
2023-05-25T16:05:46.067Z,96810.03
2023-05-25T16:08:14.261Z,96808.50
2023-05-25T16:10:41.181Z,96817.72
2023-05-25T16:13:08.138Z,96797.69
2023-05-25T16:15:35.094Z,96806.50
2023-05-25T16:18:02.081Z,96788.41
2023-05-25T16:20:29.169Z,96817.59
2023-05-25T16:22:56.136Z,96808.75
2023-05-25T16:25:23.101Z,96791.97
2023-05-25T16:27:49.984Z,96809.81
2023-05-25T16:30:16.936Z,96801.72
2023-05-25T16:32:43.915Z,96810.81
2023-05-25T16:35:10.886Z,96788.13
2023-05-25T16:37:37.793Z,96801.22
2023-05-25T16:40:04.987Z,96772.84
2023-05-25T16:42:31.950Z,96801.16
2023-05-25T16:44:58.855Z,96799.84
2023-05-25T16:47:25.767Z,96804.06
2023-05-25T16:49:52.641Z,96797.66
2023-05-25T16:52:19.545Z,96811.97
2023-05-25T16:54:46.485Z,96774.94
2023-05-25T16:57:13.358Z,96790.28
2023-05-25T16:59:40.255Z,96809.22
2023-05-25T17:02:07.187Z,96779.63
2023-05-25T17:04:34.091Z,96803.38
2023-05-25T17:07:00.976Z,96798.00
2023-05-25T17:09:27.897Z,96800.81
2023-05-25T17:11:59.544Z,96796.88
2023-05-25T17:14:26.524Z,96811.72
2023-05-25T17:16:53.699Z,96794.41
2023-05-25T17:19:20.721Z,96806.41
2023-05-25T17:21:48.374Z,96779.53
2023-05-25T17:24:15.350Z,96797.09
2023-05-25T17:26:42.241Z,96805.63
2023-05-25T17:29:09.146Z,96810.72
2023-05-25T17:31:36.077Z,96792.72
2023-05-25T17:34:03.416Z,96785.50
2023-05-25T17:36:30.309Z,96793.66
2023-05-25T17:38:57.235Z,96799.41
2023-05-25T17:41:24.198Z,96789.75
2023-05-25T17:43:51.150Z,96817.28
2023-05-25T17:46:18.223Z,96803.47
2023-05-25T17:48:45.901Z,96802.59
2023-05-25T17:51:12.839Z,96804.00
2023-05-25T17:53:39.874Z,96809.34
2023-05-25T17:56:06.995Z,96795.16
2023-05-25T17:58:33.915Z,96810.03
2023-05-25T18:01:01.000Z,96810.53
2023-05-25T18:03:28.078Z,96829.75
2023-05-25T18:05:55.130Z,96826.72
2023-05-25T18:08:22.156Z,96831.56
2023-05-25T18:10:50.775Z,96831.56
2023-05-25T18:13:17.697Z,96834.09
2023-05-25T18:15:44.890Z,96802.00
2023-05-25T18:18:17.566Z,96770.75
2023-05-25T18:20:44.593Z,96828.19
2023-05-25T18:23:13.472Z,96829.91
2023-05-25T18:25:40.481Z,96843.91
2023-05-25T18:28:07.405Z,96840.53
2023-05-25T18:30:34.855Z,96815.53
2023-05-25T18:33:01.854Z,96826.75
2023-05-25T18:35:28.814Z,96836.91
2023-05-25T18:37:55.806Z,96842.22
2023-05-25T18:40:23.502Z,96856.16
2023-05-25T18:42:51.147Z,96864.53
2023-05-25T18:45:18.052Z,96846.25
2023-05-25T18:47:45.001Z,96838.09
2023-05-25T18:50:12.602Z,96858.00
2023-05-25T18:52:39.751Z,96859.53
2023-05-25T18:55:07.248Z,96855.16
2023-05-25T18:57:34.635Z,96839.47
2023-05-25T19:00:01.548Z,96864.59
2023-05-25T19:02:29.331Z,96866.00
2023-05-25T19:04:56.306Z,96875.22
2023-05-25T19:07:23.214Z,96859.97
2023-05-25T19:09:50.104Z,96865.16
2023-05-25T19:12:17.152Z,96873.59
2023-05-25T19:14:44.092Z,96881.44
2023-05-25T19:17:10.986Z,96883.50
2023-05-25T19:19:37.906Z,96866.63
2023-05-25T19:22:05.029Z,96899.16
2023-05-25T19:24:31.975Z,96860.00
2023-05-25T19:26:58.874Z,96889.69
2023-05-25T19:29:25.827Z,96879.09
2023-05-25T19:31:52.964Z,96900.69
2023-05-25T19:34:20.043Z,96907.41
2023-05-25T19:36:48.256Z,96913.03
2023-05-25T19:39:20.608Z,96916.25
2023-05-25T19:41:48.159Z,96914.16
2023-05-25T19:44:15.193Z,96896.63
2023-05-25T19:46:42.559Z,96897.97
2023-05-25T19:49:09.540Z,96915.00
2023-05-25T19:51:37.631Z,96887.13
2023-05-25T19:54:04.587Z,96906.00
2023-05-25T19:56:31.589Z,96899.50
2023-05-25T19:58:58.503Z,96920.19
2023-05-25T20:01:25.511Z,96904.81
2023-05-25T20:03:52.631Z,96907.19
2023-05-25T20:06:19.610Z,96893.75
2023-05-25T20:08:46.674Z,96910.97
2023-05-25T20:11:13.608Z,96914.50
2023-05-25T20:13:41.586Z,96933.78
2023-05-25T20:16:11.498Z,96917.44
2023-05-25T20:18:38.548Z,96917.19
2023-05-25T20:21:05.824Z,96926.63
2023-05-25T20:23:32.710Z,96931.78
2023-05-25T20:25:59.736Z,96933.56
2023-05-25T20:28:26.653Z,96920.50
2023-05-25T20:30:53.584Z,96927.94
2023-05-25T20:33:21.231Z,96916.75
2023-05-25T20:35:48.535Z,96909.09
2023-05-25T20:38:15.517Z,96930.16
2023-05-25T20:40:42.423Z,96930.38
2023-05-25T20:43:09.362Z,96922.06
2023-05-25T20:45:36.362Z,96935.56
2023-05-25T20:48:06.826Z,96955.47
2023-05-25T20:50:33.801Z,96928.00
2023-05-25T20:53:00.733Z,96953.88
2023-05-25T20:55:27.768Z,96952.75
2023-05-25T20:57:54.879Z,96928.22
2023-05-25T21:00:23.807Z,96941.34
2023-05-25T21:02:50.760Z,96933.69
2023-05-25T21:05:17.875Z,96931.53
2023-05-25T21:07:44.825Z,96931.03
2023-05-25T21:10:11.752Z,96963.44
2023-05-25T21:12:38.737Z,96940.47
2023-05-25T21:15:06.637Z,96932.72
2023-05-25T21:17:33.622Z,96969.75
2023-05-25T21:20:00.840Z,96954.91
2023-05-25T21:22:27.716Z,96960.53
2023-05-25T21:24:54.707Z,96972.44
2023-05-25T21:27:21.706Z,96976.41
2023-05-25T21:29:48.657Z,96942.16
2023-05-25T21:32:15.624Z,96965.56
2023-05-25T21:34:42.538Z,96917.63
2023-05-25T21:37:09.415Z,96963.09
2023-05-25T21:39:36.399Z,96956.59
2023-05-25T21:42:23.695Z,96984.41
2023-05-25T21:44:50.646Z,96978.06
2023-05-25T21:47:17.574Z,96981.94
2023-05-25T21:49:44.529Z,96977.88
2023-05-25T21:52:19.120Z,96972.09
2023-05-25T21:54:46.095Z,96969.47
2023-05-25T21:57:13.101Z,97010.06
2023-05-25T21:59:40.047Z,97007.78
2023-05-25T22:02:07.092Z,97005.13
2023-05-25T22:04:34.001Z,97007.78
2023-05-25T22:07:00.885Z,97016.31
2023-05-25T22:09:29.980Z,97008.41
2023-05-25T22:11:56.884Z,96995.91
2023-05-25T22:14:23.854Z,97019.97
2023-05-25T22:16:50.928Z,96991.47
2023-05-25T22:19:18.011Z,97020.28
2023-05-25T22:21:44.974Z,97002.41
2023-05-25T22:24:12.091Z,97019.34
2023-05-25T22:26:39.082Z,96992.94
2023-05-25T22:29:06.008Z,97014.44
2023-05-25T22:31:33.033Z,97024.72
2023-05-25T22:34:00.111Z,96985.44
2023-05-25T22:36:27.047Z,96995.28
2023-05-25T22:38:53.944Z,97014.66
2023-05-25T22:41:21.634Z,96997.59
2023-05-25T22:43:48.692Z,96992.19
2023-05-25T22:46:15.773Z,97009.00
2023-05-25T22:48:43.770Z,97010.41
2023-05-25T22:51:10.704Z,97000.16
2023-05-25T22:53:37.709Z,96998.16
2023-05-25T22:56:04.641Z,96993.00
2023-05-25T22:58:31.535Z,97017.75
2023-05-25T23:00:58.475Z,96979.94
2023-05-25T23:03:25.503Z,97021.22
2023-05-25T23:05:52.538Z,97019.19
2023-05-25T23:08:19.457Z,97017.91
2023-05-25T23:10:46.393Z,97007.53
2023-05-25T23:13:15.123Z,97015.28
2023-05-25T23:15:45.207Z,96993.81
2023-05-25T23:18:12.292Z,97012.50
2023-05-25T23:20:40.803Z,97014.69
2023-05-25T23:23:08.068Z,97004.56
2023-05-25T23:25:35.005Z,96992.41
2023-05-25T23:28:01.959Z,96990.88
2023-05-25T23:30:28.997Z,96977.81
2023-05-25T23:32:55.899Z,96997.75
2023-05-25T23:35:23.573Z,96937.06
2023-05-25T23:37:52.252Z,96993.53
2023-05-25T23:40:19.232Z,96977.81
2023-05-25T23:42:46.183Z,96986.06
2023-05-25T23:45:13.925Z,97013.47
2023-05-25T23:47:40.984Z,96999.28
2023-05-25T23:50:08.220Z,97006.91
2023-05-25T23:52:35.234Z,96980.16
2023-05-25T23:55:02.435Z,97006.47
2023-05-25T23:57:29.408Z,97009.88
2023-05-25T23:59:56.428Z,96975.47
